AirNav   Air Wisconsin Up To $57,000 Bonus
 
 925 users online  

4G3 Miller Airport
Alliance, Ohio, USA

GOING TO ALLIANCE?


FAA INFORMATION EFFECTIVE 09 SEPTEMBER 2021

Location

FAA Identifier: 4G3
Lat/Long: 40-58-54.3000N 081-02-31.7000W
40-58.905000N 081-02.528333W
40.9817500,-81.0421389
(estimated)
Elevation: 1071.1 ft. / 326.5 m (surveyed)
Variation: 04W (1965)
From city: 5 miles NE of ALLIANCE, OH
Time zone: UTC -4 (UTC -5 during Standard Time)
Zip code: 44449

Airport Operations

Airport use: CLOSED INDEFINITELY
Activation date: 01/1938
Control tower: no
ARTCC: CLEVELAND CENTER
FSS: CLEVELAND FLIGHT SERVICE STATION
NOTAMs facility: CLE (NOTAM-D service available)
Attendance: UNATNDD
CTC AMGR 48 HRS PRIOR TO VFY FLD CONDS.
Wind indicator: yes
Segmented circle: no
Beacon: white-green (lighted land airport)

Airport Communications

CTAF: 122.9
CLEVELAND APPROACH: 125.5
CLEVELAND DEPARTURE: 125.5
WX AWOS-3 at POV (17 nm NW): 118.675 (330-298-9353)
WX ASOS at CAK (19 nm W): PHONE 330-493-5260
WX ASOS at AKR (20 nm W): 126.825 (330-724-4237)
WX AWOS-2 at 1G3 (20 nm NW): 119.15 (330-346-1497)
  • APCH/DEP SVC PRVDD BY CLEVELAND APCH (CLE) 0600-0000. APCH/DEP SVC PRVDD BY CLEVELAND ARTCC (ZOB) ON FREQS 120.6/298.95 (CHARDON RCAG) 0000-0600.

Nearby radio navigation aids

VOR radial/distance  VOR name  Freq  Var
ACOr140/10.5AKRON VOR/DME114.4004W
BSVr055/22.9BRIGGS VOR/DME112.4004W
YNGr223/26.7YOUNGSTOWN VORTAC109.0005W
CXRr175/32.6CHARDON VOR/DME112.7005W
EWCr292/38.8ELLWOOD CITY VOR/DME115.8008W

 
NDB name  Hdg/Dist  Freq  Var  ID
CASTLE274/28.527209WUCP ..- -.-. .--.

Airport Services

Parking: tiedowns
Bottled oxygen: NONE
Bulk oxygen: NONE

Runway Information

Runway 9/27

Dimensions: 2912 x 50 ft. / 888 x 15 m
Surface: asphalt, in fair condition
Weight bearing capacity: 
Single wheel: 9.0
RUNWAY 9  RUNWAY 27
Latitude: 40-58.910400N40-58.898593N
Longitude: 081-02.844973W081-02.212330W
Elevation: 1056.4 ft.1067.1 ft.
Traffic pattern: leftleft
Runway heading: 095 magnetic, 091 true275 magnetic, 271 true
Markings: basic, in fair conditionbasic, in fair condition
Runway end identifier lights: nono
Touchdown point: yes, no lightsyes, no lights
Obstructions: 110 ft. trees, 1000 ft. from runway, 125 ft. right of centerline, 7:1 slope to clear
58 FT TREES, 0-40 FT DIST, 110 FT R.
75 ft. trees, 400 ft. from runway, 60 ft. right of centerline, 2:1 slope to clear
50 FT TREES, 132 FT DIST, 120 FT R.

Airport Ownership and Management from official FAA records

Ownership: Privately-owned
Owner: GROVER MATTHEWS
1286 ADAMS ST
FAIRBORN, OH 45324-5505
Phone 270-863-1799
Manager: GROVER MATTHEWS
1286 ADAMS ST
FAIRBORN, OH 45324-5505
Phone 270-863-1799
ARPT PHYS ADS: 20388 N BENTON WEST RD, NORTH BENTON, OH 44449-9636.

Airport Operational Statistics

Aircraft based on the field: 2
Single engine airplanes: 2
    
Aircraft operations: avg 29/month *
71% local general aviation
29% transient general aviation
* for 12-month period ending 23 July 2020

Additional Remarks

DAYTIME OPS ONLY.
FOR CD CTC CLEVELAND APCH AT 216-352-2323, WHEN APCH CLSD CTC CLEVELAND ARTCC AT 440-774-0223.
DEER, BIRDS, & WILDLIFE ON & INVOF ARPT.
(ARPT STATUS) ARPT CLSD INDEFLY.

Instrument Procedures

There are no published instrument procedures at 4G3.

Some nearby airports with instrument procedures:

3G6 - Tri-City Airport (5 nm SE)
38D - Salem Airpark Inc (8 nm E)
4G4 - Youngstown Elser Metro Airport (17 nm E)
KPOV - Portage County Airport (17 nm NW)
KCAK - Akron-Canton Regional Airport (19 nm W)
KAKR - Akron Fulton International Airport (20 nm W)
1G3 - Kent State University Airport (20 nm NW)
 
Loc | Ops | Rwys | IFR | FBO | Links
Com | Nav | Svcs | Stats | Notes
Area around 4G3 (Miller Airport)
 
Road maps at: MapQuest Bing Google
 
Aerial photo
WARNING: Photo may not be current or correct
Aerial photo of 4G3 (Miller Airport)
Photo by Bev Smith
Photo taken 10-Jun-2007
from a 172 at 1000 feet AGL

Do you have a better or more recent aerial photo of Miller Airport that you would like to share? If so, please send us your photo.

 
Sectional chart

 
Airport distance calculator
Flying to Miller Airport? Find the distance to fly.

From to 4G3

Sunrise and sunset
Times for 25-Sep-2021
 Local
(UTC-4)
 Zulu
(UTC)
Morning civil twilight06:4810:48
Sunrise07:1611:16
Sunset19:1623:16
Evening civil twilight19:4323:43

Current date and time
Zulu (UTC)  25-Sep-2021 14:01:01
Local (UTC-4)  25-Sep-2021 10:01:01
 
METAR
KPOV 
17nm NW 
251355Z AUTO 00000KT 10SM BKN060 14/08 A2999 RMK AO2 T01350082 PWINO P0001
KCAK 
19nm W 
251351Z 22010KT 10SM FEW065 SCT100 BKN200 OVC250 16/09 A3001 RMK AO2 SLP158 T01610094
KAKR 
19nm W 
251354Z AUTO 20010KT 10SM SCT065 17/09 A2999 RMK AO2 SLP153 T01670089
KYNG 
23nm NE 
251351Z 18007KT 10SM FEW022 FEW090 SCT200 OVC250 15/09 A3002 RMK AO2 SLP165 BINOVC T01500089
KUCP 
29nm E 
251256Z AUTO 16005KT 10SM CLR 12/08 A3004 RMK AO2 SLP188 T01170083
KBVI 
32nm SE 
251355Z AUTO 18006KT 10SM CLR 16/10 A3005 RMK AO2 T01580099
TAF
KCAK 
19nm W 
251123Z 2512/2612 19007KT P6SM SCT250 FM251700 25010KT P6SM -RA SCT025 OVC070 FM252000 26010KT P6SM BKN035 FM260000 27008KT P6SM SCT050
KYNG 
23nm NE 
250537Z 2506/2606 18005KT P6SM SCT250 FM251700 22009KT P6SM -SHRA SCT025 OVC070 FM252000 25008KT P6SM BKN035 FM260000 25006KT P6SM SCT050
NOTAMs
Click for the latest NOTAMs
NOTAMs are issued by the DoD/FAA and will open in a separate window not controlled by AirNav.

 

 
 

Would you like to see your business listed on this page?

 If your business provides an interesting product or service to pilots, flight crews, aircraft, or users of the Miller Airport, you should consider listing it here.  To start the listing process, click on the button below
 
Add a business
 

Other Pages about Miller Airport

Update a link
 
Copyright © AirNav, LLC. All rights reserved. Privacy Policy  Contact